sensor_id;sensor_type;location;lat;lon;timestamp;P1;durP1;ratioP1;P2;durP2;ratioP2
57107;SDS011;42987;52.916;6.542;2023-12-07T00:02:14;29.95;;;21.67;;
57107;SDS011;42987;52.916;6.542;2023-12-07T00:04:40;23.08;;;19.10;;
57107;SDS011;42987;52.916;6.542;2023-12-07T00:07:06;22.20;;;19.15;;
57107;SDS011;42987;52.916;6.542;2023-12-07T00:09:31;21.60;;;18.03;;
57107;SDS011;42987;52.916;6.542;2023-12-07T00:11:57;21.65;;;18.17;;
57107;SDS011;42987;52.916;6.542;2023-12-07T00:14:23;25.50;;;19.38;;
57107;SDS011;42987;52.916;6.542;2023-12-07T00:16:49;25.55;;;20.05;;
57107;SDS011;42987;52.916;6.542;2023-12-07T00:19:14;24.10;;;18.52;;
57107;SDS011;42987;52.916;6.542;2023-12-07T00:21:40;25.38;;;19.05;;
57107;SDS011;42987;52.916;6.542;2023-12-07T00:24:06;35.05;;;21.02;;
57107;SDS011;42987;52.916;6.542;2023-12-07T00:26:31;22.42;;;18.15;;
57107;SDS011;42987;52.916;6.542;2023-12-07T00:28:57;23.98;;;20.02;;
57107;SDS011;42987;52.916;6.542;2023-12-07T00:31:23;25.25;;;20.67;;
57107;SDS011;42987;52.916;6.542;2023-12-07T00:33:48;25.63;;;19.35;;
57107;SDS011;42987;52.916;6.542;2023-12-07T00:36:14;22.03;;;18.13;;
57107;SDS011;42987;52.916;6.542;2023-12-07T00:38:40;25.60;;;19.40;;
57107;SDS011;42987;52.916;6.542;2023-12-07T00:41:06;21.60;;;18.60;;
57107;SDS011;42987;52.916;6.542;2023-12-07T00:43:35;28.80;;;21.83;;
57107;SDS011;42987;52.916;6.542;2023-12-07T00:46:00;19.88;;;17.50;;
57107;SDS011;42987;52.916;6.542;2023-12-07T00:48:27;20.98;;;18.05;;
57107;SDS011;42987;52.916;6.542;2023-12-07T00:50:53;21.33;;;17.85;;
57107;SDS011;42987;52.916;6.542;2023-12-07T00:53:18;21.95;;;19.50;;
57107;SDS011;42987;52.916;6.542;2023-12-07T00:55:44;23.65;;;19.85;;
57107;SDS011;42987;52.916;6.542;2023-12-07T00:58:10;27.00;;;21.15;;
57107;SDS011;42987;52.916;6.542;2023-12-07T01:00:36;29.88;;;22.00;;
57107;SDS011;42987;52.916;6.542;2023-12-07T01:03:02;37.28;;;23.00;;
57107;SDS011;42987;52.916;6.542;2023-12-07T01:05:28;25.88;;;20.55;;
57107;SDS011;42987;52.916;6.542;2023-12-07T01:07:53;27.40;;;20.08;;
57107;SDS011;42987;52.916;6.542;2023-12-07T01:10:19;25.05;;;18.85;;
57107;SDS011;42987;52.916;6.542;2023-12-07T01:12:45;29.17;;;21.08;;
57107;SDS011;42987;52.916;6.542;2023-12-07T01:15:11;25.65;;;21.58;;
57107;SDS011;42987;52.916;6.542;2023-12-07T01:17:36;24.92;;;21.23;;
57107;SDS011;42987;52.916;6.542;2023-12-07T01:20:03;22.50;;;19.08;;
57107;SDS011;42987;52.916;6.542;2023-12-07T01:22:32;27.08;;;21.83;;
57107;SDS011;42987;52.916;6.542;2023-12-07T01:24:57;25.65;;;20.88;;
57107;SDS011;42987;52.916;6.542;2023-12-07T01:27:23;22.95;;;20.15;;
57107;SDS011;42987;52.916;6.542;2023-12-07T01:29:49;25.13;;;19.83;;
57107;SDS011;42987;52.916;6.542;2023-12-07T01:32:15;26.65;;;21.13;;
57107;SDS011;42987;52.916;6.542;2023-12-07T01:34:41;25.92;;;20.90;;
57107;SDS011;42987;52.916;6.542;2023-12-07T01:37:06;27.30;;;21.38;;
57107;SDS011;42987;52.916;6.542;2023-12-07T01:39:32;29.17;;;22.98;;
57107;SDS011;42987;52.916;6.542;2023-12-07T01:41:58;23.27;;;20.77;;
57107;SDS011;42987;52.916;6.542;2023-12-07T01:44:24;24.40;;;20.92;;
57107;SDS011;42987;52.916;6.542;2023-12-07T01:46:50;28.58;;;22.98;;
57107;SDS011;42987;52.916;6.542;2023-12-07T01:49:19;35.03;;;24.40;;
57107;SDS011;42987;52.916;6.542;2023-12-07T01:51:45;24.95;;;22.23;;
57107;SDS011;42987;52.916;6.542;2023-12-07T01:54:11;26.42;;;22.63;;
57107;SDS011;42987;52.916;6.542;2023-12-07T01:56:37;48.30;;;27.00;;
57107;SDS011;42987;52.916;6.542;2023-12-07T01:59:03;44.28;;;28.45;;
57107;SDS011;42987;52.916;6.542;2023-12-07T02:01:29;43.92;;;29.13;;
57107;SDS011;42987;52.916;6.542;2023-12-07T02:03:55;29.25;;;23.95;;
57107;SDS011;42987;52.916;6.542;2023-12-07T02:06:20;37.97;;;25.05;;
57107;SDS011;42987;52.916;6.542;2023-12-07T02:08:47;36.30;;;26.02;;
57107;SDS011;42987;52.916;6.542;2023-12-07T02:11:13;41.30;;;27.42;;
57107;SDS011;42987;52.916;6.542;2023-12-07T02:13:39;37.87;;;27.23;;
57107;SDS011;42987;52.916;6.542;2023-12-07T02:16:07;34.78;;;26.80;;
57107;SDS011;42987;52.916;6.542;2023-12-07T02:18:46;51.78;;;30.02;;
57107;SDS011;42987;52.916;6.542;2023-12-07T02:21:30;37.13;;;26.33;;
57107;SDS011;42987;52.916;6.542;2023-12-07T02:24:02;28.83;;;23.92;;
57107;SDS011;42987;52.916;6.542;2023-12-07T02:26:34;39.22;;;27.40;;
57107;SDS011;42987;52.916;6.542;2023-12-07T02:29:00;50.45;;;30.08;;
57107;SDS011;42987;52.916;6.542;2023-12-07T02:31:25;37.58;;;27.85;;
57107;SDS011;42987;52.916;6.542;2023-12-07T02:33:52;33.10;;;25.65;;
57107;SDS011;42987;52.916;6.542;2023-12-07T02:36:24;34.60;;;26.50;;
57107;SDS011;42987;52.916;6.542;2023-12-07T02:38:53;40.72;;;27.92;;
57107;SDS011;42987;52.916;6.542;2023-12-07T02:41:23;38.15;;;27.05;;
57107;SDS011;42987;52.916;6.542;2023-12-07T02:43:51;27.25;;;23.40;;
57107;SDS011;42987;52.916;6.542;2023-12-07T02:46:17;35.72;;;27.00;;
57107;SDS011;42987;52.916;6.542;2023-12-07T02:48:43;31.70;;;23.67;;
57107;SDS011;42987;52.916;6.542;2023-12-07T02:51:09;35.13;;;26.75;;
57107;SDS011;42987;52.916;6.542;2023-12-07T02:53:34;29.02;;;24.55;;
57107;SDS011;42987;52.916;6.542;2023-12-07T02:56:00;42.20;;;27.00;;
57107;SDS011;42987;52.916;6.542;2023-12-07T02:58:26;60.03;;;30.60;;
57107;SDS011;42987;52.916;6.542;2023-12-07T03:00:52;68.25;;;33.15;;
57107;SDS011;42987;52.916;6.542;2023-12-07T03:03:17;48.05;;;30.05;;
57107;SDS011;42987;52.916;6.542;2023-12-07T03:05:43;55.28;;;30.27;;
57107;SDS011;42987;52.916;6.542;2023-12-07T03:08:09;45.05;;;29.77;;
57107;SDS011;42987;52.916;6.542;2023-12-07T03:10:35;34.70;;;27.15;;
57107;SDS011;42987;52.916;6.542;2023-12-07T03:13:00;32.72;;;26.88;;
57107;SDS011;42987;52.916;6.542;2023-12-07T03:15:26;46.88;;;30.15;;
57107;SDS011;42987;52.916;6.542;2023-12-07T03:17:52;60.88;;;31.77;;
57107;SDS011;42987;52.916;6.542;2023-12-07T03:20:18;45.97;;;30.15;;
57107;SDS011;42987;52.916;6.542;2023-12-07T03:22:43;56.30;;;31.33;;
57107;SDS011;42987;52.916;6.542;2023-12-07T03:25:09;54.67;;;30.33;;
57107;SDS011;42987;52.916;6.542;2023-12-07T03:27:35;57.15;;;31.67;;
57107;SDS011;42987;52.916;6.542;2023-12-07T03:30:01;55.75;;;30.55;;
57107;SDS011;42987;52.916;6.542;2023-12-07T03:32:27;40.80;;;27.43;;
57107;SDS011;42987;52.916;6.542;2023-12-07T03:34:53;42.88;;;27.98;;
57107;SDS011;42987;52.916;6.542;2023-12-07T03:37:18;33.72;;;25.55;;
57107;SDS011;42987;52.916;6.542;2023-12-07T03:39:44;74.07;;;34.00;;
57107;SDS011;42987;52.916;6.542;2023-12-07T03:42:10;60.40;;;32.67;;
57107;SDS011;42987;52.916;6.542;2023-12-07T03:44:35;31.77;;;25.52;;
57107;SDS011;42987;52.916;6.542;2023-12-07T03:47:01;33.55;;;25.33;;
57107;SDS011;42987;52.916;6.542;2023-12-07T03:49:27;29.75;;;23.90;;
57107;SDS011;42987;52.916;6.542;2023-12-07T03:51:54;29.73;;;24.35;;
57107;SDS011;42987;52.916;6.542;2023-12-07T03:54:19;56.75;;;30.48;;
57107;SDS011;42987;52.916;6.542;2023-12-07T03:56:45;46.57;;;27.73;;
57107;SDS011;42987;52.916;6.542;2023-12-07T03:59:11;66.75;;;32.38;;
57107;SDS011;42987;52.916;6.542;2023-12-07T04:01:37;28.60;;;23.33;;
57107;SDS011;42987;52.916;6.542;2023-12-07T04:04:02;34.60;;;26.13;;
57107;SDS011;42987;52.916;6.542;2023-12-07T04:06:29;40.67;;;27.37;;
57107;SDS011;42987;52.916;6.542;2023-12-07T04:08:55;62.37;;;29.23;;
57107;SDS011;42987;52.916;6.542;2023-12-07T04:11:21;56.35;;;30.77;;
57107;SDS011;42987;52.916;6.542;2023-12-07T04:13:47;37.20;;;27.37;;
57107;SDS011;42987;52.916;6.542;2023-12-07T04:16:14;55.53;;;30.30;;
57107;SDS011;42987;52.916;6.542;2023-12-07T04:18:39;39.63;;;27.83;;
57107;SDS011;42987;52.916;6.542;2023-12-07T04:21:05;67.20;;;32.03;;
57107;SDS011;42987;52.916;6.542;2023-12-07T04:23:31;88.28;;;35.60;;
57107;SDS011;42987;52.916;6.542;2023-12-07T04:25:58;107.30;;;38.50;;
57107;SDS011;42987;52.916;6.542;2023-12-07T04:28:24;102.80;;;37.97;;
57107;SDS011;42987;52.916;6.542;2023-12-07T04:30:49;103.57;;;39.67;;
57107;SDS011;42987;52.916;6.542;2023-12-07T04:33:15;122.88;;;41.70;;
57107;SDS011;42987;52.916;6.542;2023-12-07T04:35:41;143.03;;;44.60;;
57107;SDS011;42987;52.916;6.542;2023-12-07T04:38:06;103.20;;;39.67;;
57107;SDS011;42987;52.916;6.542;2023-12-07T04:40:32;127.97;;;43.73;;
57107;SDS011;42987;52.916;6.542;2023-12-07T04:42:58;88.47;;;39.37;;
57107;SDS011;42987;52.916;6.542;2023-12-07T04:45:24;114.07;;;43.37;;
57107;SDS011;42987;52.916;6.542;2023-12-07T04:47:49;94.67;;;41.20;;
57107;SDS011;42987;52.916;6.542;2023-12-07T04:50:15;115.03;;;43.70;;
57107;SDS011;42987;52.916;6.542;2023-12-07T04:52:41;103.47;;;41.43;;
57107;SDS011;42987;52.916;6.542;2023-12-07T04:55:06;143.17;;;46.57;;
57107;SDS011;42987;52.916;6.542;2023-12-07T04:57:33;119.30;;;46.37;;
57107;SDS011;42987;52.916;6.542;2023-12-07T04:59:59;84.20;;;40.80;;
57107;SDS011;42987;52.916;6.542;2023-12-07T05:02:26;97.30;;;42.13;;
57107;SDS011;42987;52.916;6.542;2023-12-07T05:04:52;108.27;;;43.83;;
57107;SDS011;42987;52.916;6.542;2023-12-07T05:07:19;90.47;;;41.17;;
57107;SDS011;42987;52.916;6.542;2023-12-07T05:09:45;186.30;;;46.77;;
57107;SDS011;42987;52.916;6.542;2023-12-07T05:12:11;55.17;;;35.07;;
57107;SDS011;42987;52.916;6.542;2023-12-07T05:14:36;75.37;;;38.90;;
57107;SDS011;42987;52.916;6.542;2023-12-07T05:17:02;47.93;;;32.87;;
57107;SDS011;42987;52.916;6.542;2023-12-07T05:19:31;178.03;;;44.83;;
57107;SDS011;42987;52.916;6.542;2023-12-07T05:21:57;45.40;;;31.43;;
57107;SDS011;42987;52.916;6.542;2023-12-07T05:24:23;45.00;;;31.20;;
57107;SDS011;42987;52.916;6.542;2023-12-07T05:26:49;48.07;;;31.87;;
57107;SDS011;42987;52.916;6.542;2023-12-07T05:29:15;47.63;;;32.87;;
57107;SDS011;42987;52.916;6.542;2023-12-07T05:31:40;50.67;;;35.47;;
57107;SDS011;42987;52.916;6.542;2023-12-07T05:34:09;48.00;;;34.80;;
57107;SDS011;42987;52.916;6.542;2023-12-07T05:36:36;48.15;;;34.63;;
57107;SDS011;42987;52.916;6.542;2023-12-07T05:39:01;50.80;;;34.90;;
57107;SDS011;42987;52.916;6.542;2023-12-07T05:41:27;47.70;;;33.77;;
57107;SDS011;42987;52.916;6.542;2023-12-07T05:43:53;51.30;;;34.97;;
57107;SDS011;42987;52.916;6.542;2023-12-07T05:46:19;50.10;;;35.17;;
57107;SDS011;42987;52.916;6.542;2023-12-07T05:48:45;45.53;;;33.23;;
57107;SDS011;42987;52.916;6.542;2023-12-07T05:51:18;43.03;;;33.37;;
57107;SDS011;42987;52.916;6.542;2023-12-07T05:53:45;47.50;;;33.20;;
57107;SDS011;42987;52.916;6.542;2023-12-07T05:56:11;48.77;;;33.70;;
57107;SDS011;42987;52.916;6.542;2023-12-07T05:58:37;46.50;;;35.63;;
57107;SDS011;42987;52.916;6.542;2023-12-07T06:01:03;45.80;;;33.63;;
57107;SDS011;42987;52.916;6.542;2023-12-07T06:03:29;47.37;;;33.43;;
57107;SDS011;42987;52.916;6.542;2023-12-07T06:05:55;47.07;;;32.90;;
57107;SDS011;42987;52.916;6.542;2023-12-07T06:08:21;52.20;;;36.20;;
57107;SDS011;42987;52.916;6.542;2023-12-07T06:10:47;46.97;;;33.50;;
57107;SDS011;42987;52.916;6.542;2023-12-07T06:13:13;46.00;;;33.20;;
57107;SDS011;42987;52.916;6.542;2023-12-07T06:15:39;49.90;;;34.83;;
57107;SDS011;42987;52.916;6.542;2023-12-07T06:18:06;50.00;;;34.53;;
57107;SDS011;42987;52.916;6.542;2023-12-07T06:20:32;47.00;;;34.27;;
57107;SDS011;42987;52.916;6.542;2023-12-07T06:22:58;54.43;;;35.97;;
57107;SDS011;42987;52.916;6.542;2023-12-07T06:25:24;48.17;;;35.07;;
57107;SDS011;42987;52.916;6.542;2023-12-07T06:27:50;49.83;;;35.53;;
57107;SDS011;42987;52.916;6.542;2023-12-07T06:30:16;53.33;;;35.73;;
57107;SDS011;42987;52.916;6.542;2023-12-07T06:32:43;48.77;;;35.00;;
57107;SDS011;42987;52.916;6.542;2023-12-07T06:35:11;52.93;;;35.13;;
57107;SDS011;42987;52.916;6.542;2023-12-07T06:37:37;46.60;;;34.43;;
57107;SDS011;42987;52.916;6.542;2023-12-07T06:40:05;46.57;;;34.37;;
57107;SDS011;42987;52.916;6.542;2023-12-07T06:42:34;61.03;;;37.53;;
57107;SDS011;42987;52.916;6.542;2023-12-07T06:45:01;47.10;;;33.33;;
57107;SDS011;42987;52.916;6.542;2023-12-07T06:47:30;43.53;;;32.63;;
57107;SDS011;42987;52.916;6.542;2023-12-07T06:49:56;51.80;;;33.30;;
57107;SDS011;42987;52.916;6.542;2023-12-07T06:52:22;43.00;;;32.67;;
57107;SDS011;42987;52.916;6.542;2023-12-07T06:54:48;44.37;;;33.37;;
57107;SDS011;42987;52.916;6.542;2023-12-07T06:57:13;43.50;;;32.10;;
57107;SDS011;42987;52.916;6.542;2023-12-07T06:59:40;56.67;;;37.63;;
57107;SDS011;42987;52.916;6.542;2023-12-07T07:02:08;43.33;;;33.33;;
57107;SDS011;42987;52.916;6.542;2023-12-07T07:04:34;47.07;;;33.10;;
57107;SDS011;42987;52.916;6.542;2023-12-07T07:06:59;47.60;;;35.70;;
57107;SDS011;42987;52.916;6.542;2023-12-07T07:09:25;46.93;;;36.13;;
57107;SDS011;42987;52.916;6.542;2023-12-07T07:11:51;48.53;;;38.10;;
57107;SDS011;42987;52.916;6.542;2023-12-07T07:14:18;47.83;;;35.93;;
57107;SDS011;42987;52.916;6.542;2023-12-07T07:16:44;47.80;;;37.90;;
57107;SDS011;42987;52.916;6.542;2023-12-07T07:19:10;49.20;;;39.83;;
57107;SDS011;42987;52.916;6.542;2023-12-07T07:21:36;50.37;;;41.30;;
57107;SDS011;42987;52.916;6.542;2023-12-07T07:24:02;54.60;;;41.00;;
57107;SDS011;42987;52.916;6.542;2023-12-07T07:26:27;54.20;;;40.80;;
57107;SDS011;42987;52.916;6.542;2023-12-07T07:28:56;54.03;;;40.73;;
57107;SDS011;42987;52.916;6.542;2023-12-07T07:31:22;57.60;;;40.53;;
57107;SDS011;42987;52.916;6.542;2023-12-07T07:33:47;54.17;;;40.70;;
57107;SDS011;42987;52.916;6.542;2023-12-07T07:36:14;50.23;;;39.47;;
57107;SDS011;42987;52.916;6.542;2023-12-07T07:38:42;56.53;;;41.03;;
57107;SDS011;42987;52.916;6.542;2023-12-07T07:41:09;51.00;;;40.03;;
57107;SDS011;42987;52.916;6.542;2023-12-07T07:43:36;55.07;;;40.40;;
57107;SDS011;42987;52.916;6.542;2023-12-07T07:46:03;50.07;;;38.93;;
57107;SDS011;42987;52.916;6.542;2023-12-07T07:48:29;52.40;;;41.10;;
57107;SDS011;42987;52.916;6.542;2023-12-07T07:50:55;50.63;;;40.97;;
57107;SDS011;42987;52.916;6.542;2023-12-07T07:53:20;54.70;;;41.87;;
57107;SDS011;42987;52.916;6.542;2023-12-07T07:55:46;56.37;;;41.87;;
57107;SDS011;42987;52.916;6.542;2023-12-07T07:58:12;53.43;;;41.23;;
57107;SDS011;42987;52.916;6.542;2023-12-07T08:00:38;53.87;;;40.53;;
57107;SDS011;42987;52.916;6.542;2023-12-07T08:03:04;48.43;;;40.00;;
57107;SDS011;42987;52.916;6.542;2023-12-07T08:05:30;55.37;;;40.87;;
57107;SDS011;42987;52.916;6.542;2023-12-07T08:07:56;54.60;;;42.67;;
57107;SDS011;42987;52.916;6.542;2023-12-07T08:10:25;58.73;;;42.83;;
57107;SDS011;42987;52.916;6.542;2023-12-07T08:12:51;58.87;;;43.90;;
57107;SDS011;42987;52.916;6.542;2023-12-07T08:15:19;63.67;;;47.17;;
57107;SDS011;42987;52.916;6.542;2023-12-07T08:17:47;64.63;;;46.67;;
57107;SDS011;42987;52.916;6.542;2023-12-07T08:20:12;63.67;;;46.77;;
57107;SDS011;42987;52.916;6.542;2023-12-07T08:22:39;61.97;;;45.47;;
57107;SDS011;42987;52.916;6.542;2023-12-07T08:25:10;60.20;;;43.50;;
57107;SDS011;42987;52.916;6.542;2023-12-07T08:27:36;63.53;;;46.20;;
57107;SDS011;42987;52.916;6.542;2023-12-07T08:30:03;70.30;;;47.07;;
57107;SDS011;42987;52.916;6.542;2023-12-07T08:32:30;65.97;;;45.93;;
57107;SDS011;42987;52.916;6.542;2023-12-07T08:34:56;82.27;;;51.00;;
57107;SDS011;42987;52.916;6.542;2023-12-07T08:37:22;68.80;;;46.83;;
57107;SDS011;42987;52.916;6.542;2023-12-07T08:39:47;60.73;;;44.30;;
57107;SDS011;42987;52.916;6.542;2023-12-07T08:42:14;77.33;;;48.43;;
57107;SDS011;42987;52.916;6.542;2023-12-07T08:44:40;66.20;;;45.80;;
57107;SDS011;42987;52.916;6.542;2023-12-07T08:47:06;70.23;;;47.63;;
57107;SDS011;42987;52.916;6.542;2023-12-07T08:49:32;71.83;;;48.50;;
57107;SDS011;42987;52.916;6.542;2023-12-07T08:51:57;84.10;;;49.90;;
57107;SDS011;42987;52.916;6.542;2023-12-07T08:54:23;71.23;;;48.40;;
57107;SDS011;42987;52.916;6.542;2023-12-07T08:56:49;75.30;;;49.17;;
57107;SDS011;42987;52.916;6.542;2023-12-07T08:59:15;65.13;;;49.00;;
57107;SDS011;42987;52.916;6.542;2023-12-07T09:01:41;88.73;;;53.37;;
57107;SDS011;42987;52.916;6.542;2023-12-07T09:04:07;72.60;;;49.13;;
57107;SDS011;42987;52.916;6.542;2023-12-07T09:06:32;68.60;;;49.23;;
57107;SDS011;42987;52.916;6.542;2023-12-07T09:08:58;76.63;;;52.37;;
57107;SDS011;42987;52.916;6.542;2023-12-07T09:11:24;77.70;;;52.20;;
57107;SDS011;42987;52.916;6.542;2023-12-07T09:13:50;78.17;;;52.37;;
57107;SDS011;42987;52.916;6.542;2023-12-07T09:16:15;125.27;;;64.20;;
57107;SDS011;42987;52.916;6.542;2023-12-07T09:18:46;101.70;;;56.57;;
57107;SDS011;42987;52.916;6.542;2023-12-07T09:21:12;77.07;;;53.47;;
57107;SDS011;42987;52.916;6.542;2023-12-07T09:23:38;74.47;;;52.83;;
57107;SDS011;42987;52.916;6.542;2023-12-07T09:26:04;79.90;;;54.27;;
57107;SDS011;42987;52.916;6.542;2023-12-07T09:28:31;72.63;;;51.97;;
57107;SDS011;42987;52.916;6.542;2023-12-07T09:30:58;74.87;;;52.90;;
57107;SDS011;42987;52.916;6.542;2023-12-07T09:33:24;72.43;;;52.37;;
57107;SDS011;42987;52.916;6.542;2023-12-07T09:35:50;83.60;;;56.73;;
57107;SDS011;42987;52.916;6.542;2023-12-07T09:38:17;76.67;;;55.70;;
57107;SDS011;42987;52.916;6.542;2023-12-07T09:40:43;88.70;;;57.53;;
57107;SDS011;42987;52.916;6.542;2023-12-07T09:43:10;74.73;;;52.97;;
57107;SDS011;42987;52.916;6.542;2023-12-07T09:45:37;85.13;;;58.13;;
57107;SDS011;42987;52.916;6.542;2023-12-07T09:48:03;112.53;;;63.67;;
57107;SDS011;42987;52.916;6.542;2023-12-07T09:50:29;91.63;;;59.03;;
57107;SDS011;42987;52.916;6.542;2023-12-07T09:52:57;106.53;;;60.77;;
57107;SDS011;42987;52.916;6.542;2023-12-07T09:55:23;133.20;;;63.67;;
57107;SDS011;42987;52.916;6.542;2023-12-07T09:57:53;128.63;;;59.53;;
57107;SDS011;42987;52.916;6.542;2023-12-07T10:00:23;207.65;;;72.20;;
57107;SDS011;42987;52.916;6.542;2023-12-07T10:02:48;253.60;;;74.93;;
57107;SDS011;42987;52.916;6.542;2023-12-07T10:05:15;260.97;;;68.00;;
57107;SDS011;42987;52.916;6.542;2023-12-07T10:07:42;324.17;;;76.93;;
57107;SDS011;42987;52.916;6.542;2023-12-07T10:10:10;272.60;;;70.40;;
57107;SDS011;42987;52.916;6.542;2023-12-07T10:12:40;351.13;;;82.30;;
57107;SDS011;42987;52.916;6.542;2023-12-07T10:15:27;201.53;;;68.07;;
57107;SDS011;42987;52.916;6.542;2023-12-07T10:20:22;186.33;;;62.70;;
57107;SDS011;42987;52.916;6.542;2023-12-07T10:23:06;183.47;;;60.00;;
57107;SDS011;42987;52.916;6.542;2023-12-07T10:28:07;233.07;;;66.60;;
57107;SDS011;42987;52.916;6.542;2023-12-07T10:30:33;291.77;;;73.17;;
57107;SDS011;42987;52.916;6.542;2023-12-07T10:33:02;201.97;;;59.80;;
57107;SDS011;42987;52.916;6.542;2023-12-07T10:35:41;202.13;;;63.60;;
57107;SDS011;42987;52.916;6.542;2023-12-07T10:38:08;240.73;;;71.20;;
57107;SDS011;42987;52.916;6.542;2023-12-07T10:40:34;174.80;;;61.87;;
57107;SDS011;42987;52.916;6.542;2023-12-07T10:43:01;204.87;;;61.97;;
57107;SDS011;42987;52.916;6.542;2023-12-07T10:45:30;242.50;;;67.43;;
57107;SDS011;42987;52.916;6.542;2023-12-07T10:48:07;166.20;;;59.43;;
57107;SDS011;42987;52.916;6.542;2023-12-07T10:50:34;161.23;;;59.13;;
57107;SDS011;42987;52.916;6.542;2023-12-07T10:53:09;162.70;;;60.10;;
57107;SDS011;42987;52.916;6.542;2023-12-07T10:55:56;136.90;;;52.50;;
57107;SDS011;42987;52.916;6.542;2023-12-07T10:58:25;164.18;;;56.08;;
57107;SDS011;42987;52.916;6.542;2023-12-07T11:00:54;167.47;;;57.43;;
57107;SDS011;42987;52.916;6.542;2023-12-07T11:03:22;164.87;;;57.73;;
57107;SDS011;42987;52.916;6.542;2023-12-07T11:05:49;114.63;;;54.43;;
57107;SDS011;42987;52.916;6.542;2023-12-07T11:11:16;120.63;;;54.97;;
57107;SDS011;42987;52.916;6.542;2023-12-07T11:13:57;166.07;;;60.77;;
57107;SDS011;42987;52.916;6.542;2023-12-07T11:16:31;143.03;;;57.50;;
57107;SDS011;42987;52.916;6.542;2023-12-07T11:19:00;123.10;;;54.03;;
57107;SDS011;42987;52.916;6.542;2023-12-07T11:21:26;269.07;;;75.70;;
57107;SDS011;42987;52.916;6.542;2023-12-07T11:23:52;218.33;;;70.53;;
57107;SDS011;42987;52.916;6.542;2023-12-07T11:26:22;228.10;;;71.70;;
57107;SDS011;42987;52.916;6.542;2023-12-07T11:28:49;128.05;;;58.60;;
57107;SDS011;42987;52.916;6.542;2023-12-07T11:31:15;143.33;;;60.13;;
57107;SDS011;42987;52.916;6.542;2023-12-07T11:33:41;258.83;;;72.77;;
57107;SDS011;42987;52.916;6.542;2023-12-07T11:36:08;205.30;;;66.43;;
57107;SDS011;42987;52.916;6.542;2023-12-07T11:38:39;209.87;;;72.53;;
57107;SDS011;42987;52.916;6.542;2023-12-07T11:41:42;222.37;;;72.33;;
57107;SDS011;42987;52.916;6.542;2023-12-07T11:44:10;179.77;;;68.23;;
57107;SDS011;42987;52.916;6.542;2023-12-07T11:46:39;189.20;;;66.10;;
57107;SDS011;42987;52.916;6.542;2023-12-07T11:49:06;221.60;;;72.03;;
57107;SDS011;42987;52.916;6.542;2023-12-07T11:51:35;256.02;;;76.63;;
57107;SDS011;42987;52.916;6.542;2023-12-07T11:54:02;264.97;;;80.13;;
57107;SDS011;42987;52.916;6.542;2023-12-07T11:56:28;166.80;;;70.07;;
57107;SDS011;42987;52.916;6.542;2023-12-07T11:58:53;267.30;;;78.10;;
57107;SDS011;42987;52.916;6.542;2023-12-07T12:01:21;194.17;;;73.13;;
57107;SDS011;42987;52.916;6.542;2023-12-07T12:03:49;208.97;;;74.33;;
57107;SDS011;42987;52.916;6.542;2023-12-07T12:06:15;156.03;;;66.73;;
57107;SDS011;42987;52.916;6.542;2023-12-07T12:08:41;222.63;;;76.53;;
57107;SDS011;42987;52.916;6.542;2023-12-07T12:11:07;276.87;;;87.77;;
57107;SDS011;42987;52.916;6.542;2023-12-07T12:13:34;254.90;;;79.77;;
57107;SDS011;42987;52.916;6.542;2023-12-07T12:16:00;256.37;;;85.47;;
57107;SDS011;42987;52.916;6.542;2023-12-07T12:18:26;193.37;;;71.03;;
57107;SDS011;42987;52.916;6.542;2023-12-07T12:20:53;160.53;;;69.93;;
57107;SDS011;42987;52.916;6.542;2023-12-07T12:23:19;182.27;;;71.23;;
57107;SDS011;42987;52.916;6.542;2023-12-07T12:25:45;226.07;;;80.13;;
57107;SDS011;42987;52.916;6.542;2023-12-07T12:28:14;186.40;;;71.97;;
57107;SDS011;42987;52.916;6.542;2023-12-07T12:30:41;194.13;;;73.53;;
57107;SDS011;42987;52.916;6.542;2023-12-07T12:33:07;195.63;;;72.10;;
57107;SDS011;42987;52.916;6.542;2023-12-07T12:35:33;205.67;;;76.90;;
57107;SDS011;42987;52.916;6.542;2023-12-07T12:37:59;218.80;;;79.90;;
57107;SDS011;42987;52.916;6.542;2023-12-07T12:40:27;167.60;;;71.87;;
57107;SDS011;42987;52.916;6.542;2023-12-07T12:42:57;132.03;;;63.60;;
57107;SDS011;42987;52.916;6.542;2023-12-07T12:45:23;228.10;;;73.90;;
57107;SDS011;42987;52.916;6.542;2023-12-07T12:47:49;245.13;;;80.53;;
57107;SDS011;42987;52.916;6.542;2023-12-07T12:53:07;201.23;;;72.90;;
57107;SDS011;42987;52.916;6.542;2023-12-07T12:55:38;190.63;;;66.80;;
57107;SDS011;42987;52.916;6.542;2023-12-07T12:58:06;241.48;;;77.60;;
57107;SDS011;42987;52.916;6.542;2023-12-07T13:00:33;207.40;;;71.23;;
57107;SDS011;42987;52.916;6.542;2023-12-07T13:03:00;151.43;;;62.03;;
57107;SDS011;42987;52.916;6.542;2023-12-07T13:05:31;167.93;;;65.43;;
57107;SDS011;42987;52.916;6.542;2023-12-07T13:08:01;204.70;;;69.03;;
57107;SDS011;42987;52.916;6.542;2023-12-07T13:10:27;163.73;;;63.47;;
57107;SDS011;42987;52.916;6.542;2023-12-07T13:12:53;164.53;;;63.80;;
57107;SDS011;42987;52.916;6.542;2023-12-07T13:15:19;161.97;;;63.83;;
57107;SDS011;42987;52.916;6.542;2023-12-07T13:17:44;163.67;;;63.87;;
57107;SDS011;42987;52.916;6.542;2023-12-07T13:20:10;176.07;;;65.70;;
57107;SDS011;42987;52.916;6.542;2023-12-07T13:22:37;204.47;;;70.87;;
57107;SDS011;42987;52.916;6.542;2023-12-07T13:25:04;157.03;;;62.13;;
57107;SDS011;42987;52.916;6.542;2023-12-07T13:27:31;166.93;;;62.97;;
57107;SDS011;42987;52.916;6.542;2023-12-07T13:29:58;178.07;;;66.03;;
57107;SDS011;42987;52.916;6.542;2023-12-07T13:32:24;183.65;;;64.85;;
57107;SDS011;42987;52.916;6.542;2023-12-07T13:34:50;150.53;;;62.13;;
57107;SDS011;42987;52.916;6.542;2023-12-07T13:37:17;190.13;;;66.23;;
57107;SDS011;42987;52.916;6.542;2023-12-07T13:39:43;172.10;;;63.33;;
57107;SDS011;42987;52.916;6.542;2023-12-07T13:42:09;152.73;;;61.60;;
57107;SDS011;42987;52.916;6.542;2023-12-07T13:44:37;161.37;;;61.90;;
57107;SDS011;42987;52.916;6.542;2023-12-07T13:47:03;160.67;;;59.90;;
57107;SDS011;42987;52.916;6.542;2023-12-07T13:49:29;171.67;;;62.90;;
57107;SDS011;42987;52.916;6.542;2023-12-07T13:51:55;145.27;;;56.83;;
57107;SDS011;42987;52.916;6.542;2023-12-07T13:54:20;180.37;;;62.97;;
57107;SDS011;42987;52.916;6.542;2023-12-07T13:56:49;177.60;;;62.40;;
57107;SDS011;42987;52.916;6.542;2023-12-07T13:59:15;156.80;;;60.40;;
57107;SDS011;42987;52.916;6.542;2023-12-07T14:01:41;174.03;;;61.80;;
57107;SDS011;42987;52.916;6.542;2023-12-07T14:04:07;167.53;;;61.93;;
57107;SDS011;42987;52.916;6.542;2023-12-07T14:06:33;157.10;;;58.63;;
57107;SDS011;42987;52.916;6.542;2023-12-07T16:23:36;108.05;;;59.63;;
57107;SDS011;42987;52.916;6.542;2023-12-07T16:26:06;114.60;;;57.13;;
57107;SDS011;42987;52.916;6.542;2023-12-07T16:28:32;120.20;;;59.17;;
57107;SDS011;42987;52.916;6.542;2023-12-07T16:30:58;99.57;;;53.53;;
57107;SDS011;42987;52.916;6.542;2023-12-07T16:33:24;100.82;;;52.28;;
57107;SDS011;42987;52.916;6.542;2023-12-07T16:35:50;104.43;;;51.78;;
57107;SDS011;42987;52.916;6.542;2023-12-07T16:38:16;107.15;;;53.55;;
57107;SDS011;42987;52.916;6.542;2023-12-07T16:40:42;112.32;;;53.72;;